Time;durP1;ratioP1;P1;durP2;ratioP2;P2;SDS_P1;SDS_P2;PMS_P1;PMS_P2;Temp;Humidity;BMP_temperature;BMP_pressure;BME280_temperature;BME280_humidity;BME280_pressure;Samples;Min_cycle;Max_cycle;Signal;HPM_P1;HPM_P2
2022/08/13 00:01:25;;;;;;;1.67;1.57;;;17.90;96.40;;;;;;5036636;28;20198;-88
2022/08/13 00:03:53;;;;;;;1.57;1.43;;;17.80;96.20;;;;;;5053860;28;20178;-87
2022/08/13 00:06:57;;;;;;;1.60;1.40;;;17.80;96.40;;;;;;5036823;28;20182;-87
2022/08/13 00:09:12;;;;;;;3.57;1.40;;;17.80;96.40;;;;;;5053003;28;20185;-87
2022/08/13 00:14:31;;;;;;;2.00;1.70;;;17.70;96.50;;;;;;5053296;28;20181;-87
2022/08/13 00:16:57;;;;;;;3.90;1.73;;;17.60;96.80;;;;;;5035753;28;20188;-87
2022/08/13 00:19:26;;;;;;;1.60;1.47;;;17.50;96.80;;;;;;5036932;28;20203;-87
2022/08/13 00:21:54;;;;;;;2.57;1.40;;;17.40;97.10;;;;;;5037377;28;20221;-87
2022/08/13 00:24:20;;;;;;;1.60;1.47;;;17.40;97.30;;;;;;5041726;28;20197;-87
2022/08/13 00:26:46;;;;;;;2.13;1.50;;;17.30;97.40;;;;;;5038721;28;20246;-87
2022/08/13 00:29:12;;;;;;;2.20;1.60;;;17.30;97.50;;;;;;5036850;28;20189;-87
2022/08/13 00:31:39;;;;;;;2.47;1.53;;;17.20;97.60;;;;;;5036219;28;20232;-87
2022/08/13 00:34:05;;;;;;;1.73;1.63;;;17.20;98.00;;;;;;5054138;28;20178;-87
2022/08/13 00:36:35;;;;;;;1.60;1.47;;;17.20;98.30;;;;;;5036200;28;20231;-87
2022/08/13 00:39:09;;;;;;;2.33;1.73;;;17.10;98.30;;;;;;5036195;28;20206;-87
2022/08/13 00:41:42;;;;;;;1.97;1.50;;;17.10;98.50;;;;;;5035943;28;20292;-87
2022/08/13 00:44:16;;;;;;;2.40;1.90;;;17.10;98.80;;;;;;5052807;28;20316;-87
2022/08/13 00:46:43;;;;;;;1.93;1.83;;;17.10;98.80;;;;;;5036191;28;20249;-87
2022/08/13 00:49:12;;;;;;;2.10;1.87;;;17.00;99.00;;;;;;5036324;28;20185;-87
2022/08/13 00:51:40;;;;;;;2.00;1.60;;;17.00;99.30;;;;;;5052441;28;20283;-87
2022/08/13 00:54:15;;;;;;;2.80;1.67;;;17.00;99.50;;;;;;5036480;28;20236;-88
2022/08/13 00:56:41;;;;;;;5.17;1.70;;;16.90;99.90;;;;;;5036115;28;20183;-88
2022/08/13 00:59:11;;;;;;;2.50;1.60;;;16.90;99.90;;;;;;5035830;28;20248;-88
2022/08/13 01:01:39;;;;;;;4.03;1.60;;;16.80;99.60;;;;;;5035535;28;20654;-88
2022/08/13 01:04:07;;;;;;;1.80;1.30;;;16.70;99.70;;;;;;5036153;28;20733;-88
2022/08/13 01:06:36;;;;;;;1.50;1.40;;;16.70;99.90;;;;;;5036123;28;20174;-90
2022/08/13 01:09:08;;;;;;;3.13;1.60;;;16.60;99.90;;;;;;5036029;28;20594;-88
2022/08/13 01:11:37;;;;;;;1.57;1.47;;;16.50;99.90;;;;;;5034710;28;20202;-88
2022/08/13 01:14:07;;;;;;;1.40;1.30;;;16.50;99.90;;;;;;5052570;28;20232;-88
2022/08/13 01:16:36;;;;;;;4.00;1.90;;;16.50;99.90;;;;;;5032616;28;20182;-88
2022/08/13 01:19:07;;;;;;;2.20;1.60;;;16.40;99.90;;;;;;5032212;28;20266;-89
2022/08/13 01:21:40;;;;;;;2.63;1.83;;;16.30;99.90;;;;;;5014848;28;20286;-88
2022/08/13 01:24:10;;;;;;;3.03;1.57;;;16.30;99.90;;;;;;5031756;28;20163;-88
2022/08/13 01:26:36;;;;;;;1.50;1.30;;;16.30;99.90;;;;;;5015573;28;20183;-88
2022/08/13 01:29:05;;;;;;;2.47;1.60;;;16.20;99.90;;;;;;5015848;28;20179;-88
2022/08/13 01:31:32;;;;;;;2.97;1.50;;;16.20;99.90;;;;;;5015369;28;20203;-88
2022/08/13 01:34:22;;;;;;;2.00;1.43;;;16.10;99.90;;;;;;5016084;28;20221;-88
2022/08/13 01:36:49;;;;;;;2.77;1.70;;;16.00;99.90;;;;;;5015873;28;20325;-88
2022/08/13 01:39:15;;;;;;;4.60;1.63;;;16.00;99.90;;;;;;5023329;28;20205;-88
2022/08/13 01:41:41;;;;;;;2.27;1.83;;;16.00;99.90;;;;;;5033832;28;20225;-88
2022/08/13 01:44:08;;;;;;;3.23;1.70;;;16.00;99.90;;;;;;5033025;28;20181;-88
2022/08/13 01:52:08;;;;;;;1.63;1.53;;;15.80;99.90;;;;;;5052107;28;20202;-88
2022/08/13 01:54:36;;;;;;;2.87;1.50;;;15.70;99.90;;;;;;5037223;28;20189;-87
2022/08/13 01:57:11;;;;;;;1.77;1.67;;;15.70;99.90;;;;;;5035425;28;20196;-88
2022/08/13 01:59:39;;;;;;;3.20;1.63;;;15.70;99.90;;;;;;5035168;28;20669;-88
2022/08/13 02:02:10;;;;;;;1.60;1.50;;;15.70;99.90;;;;;;5035442;28;20198;-88
2022/08/13 02:04:37;;;;;;;1.83;1.60;;;15.70;99.90;;;;;;5035034;28;20712;-88
2022/08/13 02:07:04;;;;;;;2.03;1.40;;;15.70;99.90;;;;;;5035172;28;20182;-88
2022/08/13 02:09:31;;;;;;;2.17;1.63;;;15.70;99.90;;;;;;5035149;28;20189;-88
2022/08/13 02:11:57;;;;;;;2.80;1.67;;;15.60;99.90;;;;;;5034824;28;20202;-88
2022/08/13 02:14:23;;;;;;;2.57;1.60;;;15.60;99.90;;;;;;5035663;28;20185;-88
2022/08/13 02:16:49;;;;;;;2.90;1.70;;;15.60;99.90;;;;;;5035256;28;20185;-88
2022/08/13 02:19:15;;;;;;;3.57;1.60;;;15.70;99.90;;;;;;5052810;28;20202;-88
2022/08/13 02:21:44;;;;;;;2.50;1.80;;;15.70;99.90;;;;;;5035201;28;20296;-88
2022/08/13 02:24:15;;;;;;;2.03;1.70;;;15.70;99.90;;;;;;5039910;28;20251;-88
2022/08/13 02:26:42;;;;;;;2.13;1.70;;;15.70;99.90;;;;;;5040490;28;20178;-88
2022/08/13 02:29:11;;;;;;;2.13;1.50;;;15.60;99.90;;;;;;5038902;28;20209;-88
2022/08/13 02:31:38;;;;;;;4.33;1.90;;;15.60;99.90;;;;;;5038781;28;20201;-88
2022/08/13 02:34:05;;;;;;;2.57;1.63;;;15.60;99.90;;;;;;5039171;28;20189;-88
2022/08/13 02:36:31;;;;;;;3.70;1.83;;;15.60;99.90;;;;;;5039028;28;20178;-88
2022/08/13 02:38:59;;;;;;;2.00;1.80;;;15.40;99.90;;;;;;5038801;28;20205;-88
2022/08/13 02:41:43;;;;;;;1.93;1.77;;;15.40;99.90;;;;;;5055172;28;20206;-88
2022/08/13 02:44:16;;;;;;;4.57;1.90;;;15.30;99.90;;;;;;5038653;28;20254;-88
2022/08/13 02:46:48;;;;;;;3.23;1.77;;;15.30;99.90;;;;;;5039091;28;20294;-88
2022/08/13 02:49:14;;;;;;;2.17;1.80;;;15.20;99.90;;;;;;5039000;28;20179;-88
2022/08/13 02:51:39;;;;;;;1.73;1.63;;;15.20;99.90;;;;;;5038393;28;20206;-88
2022/08/13 02:54:06;;;;;;;3.40;1.60;;;15.20;99.90;;;;;;5038528;28;20189;-88
2022/08/13 02:56:36;;;;;;;1.90;1.80;;;15.10;99.90;;;;;;5038512;28;20181;-88
2022/08/13 02:59:06;;;;;;;2.73;1.93;;;15.00;99.90;;;;;;5038117;28;20205;-88
2022/08/13 03:01:34;;;;;;;2.00;1.80;;;14.90;99.90;;;;;;5038401;28;20201;-88
2022/08/13 03:04:00;;;;;;;3.57;2.00;;;14.80;99.90;;;;;;5038345;28;20182;-88
2022/08/13 03:06:27;;;;;;;1.93;1.70;;;14.70;99.90;;;;;;5038257;28;20181;-88
2022/08/13 03:08:53;;;;;;;1.90;1.80;;;14.70;99.90;;;;;;5037173;28;20264;-87
2022/08/13 03:11:19;;;;;;;2.53;1.83;;;14.70;99.90;;;;;;5037645;28;20225;-88
2022/08/13 03:13:56;;;;;;;2.13;1.80;;;14.80;99.90;;;;;;5037963;28;20186;-88
2022/08/13 03:16:25;;;;;;;2.10;1.90;;;14.80;99.90;;;;;;5054220;28;20174;-88
2022/08/13 03:18:53;;;;;;;1.97;1.60;;;14.80;99.90;;;;;;5054007;28;20241;-88
2022/08/13 03:21:24;;;;;;;2.10;1.90;;;14.80;99.90;;;;;;5037868;28;20197;-87
2022/08/13 03:23:51;;;;;;;2.53;2.00;;;14.70;99.90;;;;;;5038049;28;20173;-88
2022/08/13 03:26:21;;;;;;;2.17;1.90;;;14.70;99.90;;;;;;5037684;28;20190;-88
2022/08/13 03:28:51;;;;;;;2.33;1.80;;;14.70;99.90;;;;;;5037823;28;20194;-87
2022/08/13 03:31:18;;;;;;;2.40;1.80;;;14.60;99.90;;;;;;5037397;28;20205;-87
2022/08/13 03:33:45;;;;;;;1.87;1.77;;;14.50;99.90;;;;;;5038016;28;20199;-87
2022/08/13 03:36:11;;;;;;;1.90;1.70;;;14.50;99.90;;;;;;5036770;28;20293;-88
2022/08/13 03:38:38;;;;;;;2.13;2.00;;;14.50;99.90;;;;;;5037529;28;20241;-88
2022/08/13 03:44:31;;;;;;;1.70;1.60;;;14.30;99.90;;;;;;5054480;28;20172;-88
2022/08/13 03:46:58;;;;;;;2.50;1.90;;;14.30;99.90;;;;;;5054068;28;20177;-88
2022/08/13 03:49:25;;;;;;;2.90;1.90;;;14.20;99.90;;;;;;5037627;28;20177;-88
2022/08/13 03:51:52;;;;;;;2.07;1.70;;;14.10;99.90;;;;;;5054414;28;20294;-87
2022/08/13 03:54:17;;;;;;;3.00;1.77;;;14.00;99.90;;;;;;5039399;28;20256;-87
2022/08/13 03:56:45;;;;;;;2.20;2.00;;;14.00;99.90;;;;;;5037506;28;20269;-88
2022/08/13 03:59:13;;;;;;;2.03;1.83;;;13.90;99.90;;;;;;5037762;28;20213;-88
2022/08/13 04:01:41;;;;;;;2.00;1.90;;;13.90;99.90;;;;;;5052879;28;20208;-88
2022/08/13 04:04:07;;;;;;;1.97;1.80;;;13.90;99.90;;;;;;5036383;28;20208;-87
2022/08/13 04:06:33;;;;;;;3.13;1.87;;;13.90;99.90;;;;;;5037151;28;20204;-87
2022/08/13 04:09:02;;;;;;;3.33;2.00;;;13.90;99.90;;;;;;5036640;28;20197;-87
2022/08/13 04:11:28;;;;;;;3.30;2.20;;;13.90;99.90;;;;;;5036944;28;20308;-87
2022/08/13 04:13:54;;;;;;;2.83;2.10;;;13.90;99.90;;;;;;5037327;28;20178;-88
2022/08/13 04:16:22;;;;;;;3.07;2.00;;;14.00;99.90;;;;;;5053449;28;20192;-88
2022/08/13 04:18:50;;;;;;;2.33;2.13;;;14.00;99.90;;;;;;5036782;28;20280;-88
2022/08/13 04:21:17;;;;;;;3.10;2.40;;;13.90;99.90;;;;;;5054649;28;20208;-87
2022/08/13 04:23:46;;;;;;;2.97;2.20;;;14.00;99.90;;;;;;5038521;28;20181;-87
2022/08/13 04:26:14;;;;;;;3.40;2.20;;;13.90;99.90;;;;;;5035550;28;20197;-88
2022/08/13 04:28:41;;;;;;;2.10;1.90;;;13.90;99.90;;;;;;5036928;28;20188;-88
2022/08/13 04:31:11;;;;;;;2.73;1.80;;;13.90;99.90;;;;;;5036534;28;20238;-87
2022/08/13 04:33:38;;;;;;;2.13;1.93;;;13.90;99.90;;;;;;5036676;28;20181;-87
2022/08/13 04:36:05;;;;;;;2.30;2.10;;;13.90;99.90;;;;;;5036550;28;20182;-87
2022/08/13 04:38:32;;;;;;;2.07;1.90;;;13.90;99.90;;;;;;5053133;28;20198;-88
2022/08/13 04:40:58;;;;;;;1.80;1.70;;;13.90;99.90;;;;;;5052727;28;20180;-88
2022/08/13 04:43:24;;;;;;;3.23;2.00;;;13.90;99.90;;;;;;5036485;28;20170;-87
2022/08/13 04:45:50;;;;;;;2.40;2.20;;;13.80;99.90;;;;;;5036352;28;20170;-88
2022/08/13 04:48:16;;;;;;;2.20;2.00;;;13.70;99.90;;;;;;5036374;28;20179;-87
2022/08/13 04:50:45;;;;;;;2.30;2.03;;;13.60;99.90;;;;;;5036126;28;20215;-87
2022/08/13 04:53:28;;;;;;;2.40;2.20;;;13.60;99.90;;;;;;5036124;28;20212;-88
2022/08/13 04:55:56;;;;;;;2.27;2.07;;;13.60;99.90;;;;;;5019768;28;20568;-87
2022/08/13 04:58:23;;;;;;;2.17;1.97;;;13.70;99.90;;;;;;5036030;28;20238;-87
2022/08/13 05:01:12;;;;;;;3.40;2.17;;;13.70;99.90;;;;;;5051752;28;20237;-87
2022/08/13 05:03:41;;;;;;;2.40;2.20;;;13.80;99.90;;;;;;5053025;28;20176;-88
2022/08/13 05:06:12;;;;;;;3.93;2.40;;;13.90;99.90;;;;;;5035885;28;20183;-88
2022/08/13 05:08:41;;;;;;;2.57;2.37;;;13.90;99.90;;;;;;5052858;28;20164;-87
2022/08/13 05:11:11;;;;;;;3.10;2.30;;;13.90;99.90;;;;;;5052532;28;20176;-87
2022/08/13 05:13:37;;;;;;;2.40;2.20;;;14.00;99.90;;;;;;5036345;28;20239;-88
2022/08/13 05:16:07;;;;;;;2.37;2.17;;;14.00;99.90;;;;;;5035716;28;20176;-87
2022/08/13 05:18:35;;;;;;;3.53;2.10;;;14.10;99.90;;;;;;5032898;28;20188;-87
2022/08/13 05:24:21;;;;;;;4.57;2.30;;;14.50;99.90;;;;;;5038268;28;20190;-88
2022/08/13 05:27:16;;;;;;;3.57;2.63;;;14.60;99.90;;;;;;5035381;28;20233;-87
2022/08/13 05:29:48;;;;;;;3.17;2.47;;;14.80;99.90;;;;;;5035472;28;20192;-88
2022/08/13 05:32:15;;;;;;;2.40;2.10;;;15.00;99.90;;;;;;5035195;28;20212;-88
2022/08/13 05:34:44;;;;;;;2.50;2.30;;;15.10;99.90;;;;;;5032901;28;20557;-88
2022/08/13 05:37:17;;;;;;;3.60;2.50;;;15.20;99.90;;;;;;5015652;28;20320;-88
2022/08/13 05:39:44;;;;;;;4.73;2.30;;;15.30;99.90;;;;;;5049448;28;20194;-88
2022/08/13 05:42:10;;;;;;;2.03;1.90;;;15.40;99.90;;;;;;5036380;28;20198;-87
2022/08/13 05:44:44;;;;;;;3.80;2.17;;;15.60;99.90;;;;;;5036080;28;20249;-87
2022/08/13 05:47:10;;;;;;;6.27;2.50;;;15.70;99.90;;;;;;5036611;28;20170;-87
2022/08/13 05:49:36;;;;;;;3.73;2.57;;;15.80;99.90;;;;;;5036856;28;20182;-87
2022/08/13 05:52:02;;;;;;;2.63;2.10;;;15.90;99.90;;;;;;5037030;28;20224;-90
2022/08/13 05:54:40;;;;;;;2.40;2.20;;;16.00;99.90;;;;;;5044877;28;20258;-89
2022/08/13 05:57:06;;;;;;;2.60;2.40;;;16.20;99.90;;;;;;5049218;28;20185;-90
2022/08/13 06:05:47;;;;;;;2.40;2.20;;;16.40;99.90;;;;;;5052143;28;20167;-90
2022/08/13 06:08:47;;;;;;;3.17;2.47;;;16.50;99.90;;;;;;5051902;28;20174;-89
2022/08/13 06:11:17;;;;;;;2.50;2.30;;;16.60;99.90;;;;;;5051232;28;20289;-90
2022/08/13 06:13:45;;;;;;;5.27;2.33;;;16.70;99.90;;;;;;5035493;28;20236;-90
2022/08/13 06:16:14;;;;;;;2.70;2.50;;;16.80;99.90;;;;;;5046820;28;20181;-90
2022/08/13 06:18:49;;;;;;;2.93;2.73;;;16.90;99.90;;;;;;5014846;28;20185;-90
2022/08/13 06:21:18;;;;;;;2.70;2.50;;;17.00;99.90;;;;;;5033053;28;20189;-90
2022/08/13 06:23:54;;;;;;;5.50;3.07;;;17.10;99.90;;;;;;5036085;28;20172;-90
2022/08/13 06:26:22;;;;;;;3.33;2.53;;;17.20;99.90;;;;;;5054604;28;20178;-90
2022/08/13 06:28:54;;;;;;;4.13;2.63;;;17.30;99.90;;;;;;5026442;28;20184;-90
2022/08/13 06:31:31;;;;;;;3.37;2.90;;;17.40;99.90;;;;;;5048745;28;20204;-87
2022/08/13 06:33:57;;;;;;;2.87;2.60;;;17.50;99.90;;;;;;5035164;28;20166;-88
2022/08/13 06:36:29;;;;;;;4.00;2.30;;;17.60;99.90;;;;;;5034413;28;20186;-88
2022/08/13 06:39:00;;;;;;;2.93;2.40;;;17.70;99.90;;;;;;5034353;28;20206;-88
2022/08/13 06:41:28;;;;;;;5.27;2.43;;;17.80;99.90;;;;;;5034502;28;20194;-88
2022/08/13 06:44:02;;;;;;;5.30;2.70;;;18.10;99.90;;;;;;5033680;28;20210;-88
2022/08/13 06:46:29;;;;;;;2.83;2.37;;;18.20;99.90;;;;;;5050966;28;20179;-87
2022/08/13 06:49:00;;;;;;;2.80;2.60;;;18.40;99.90;;;;;;5050685;28;20182;-86
2022/08/13 06:51:26;;;;;;;2.50;2.30;;;18.50;99.90;;;;;;5034207;28;20213;-87
2022/08/13 06:53:54;;;;;;;2.27;2.07;;;18.50;99.90;;;;;;5033681;28;20178;-87
2022/08/13 06:56:24;;;;;;;2.90;2.60;;;18.60;99.90;;;;;;5035184;28;20189;-87
2022/08/13 06:58:52;;;;;;;4.93;2.40;;;18.70;99.90;;;;;;5027270;28;20684;-88
2022/08/13 07:01:24;;;;;;;2.58;2.03;;;18.80;99.90;;;;;;5035212;28;20189;-88
2022/08/13 07:03:53;;;;;;;2.47;2.20;;;18.90;99.90;;;;;;5019053;28;20658;-87
2022/08/13 07:06:26;;;;;;;2.30;2.10;;;19.00;99.90;;;;;;5018446;28;20232;-87
2022/08/13 07:08:58;;;;;;;2.55;2.05;;;19.10;99.90;;;;;;5047281;28;20177;-87
2022/08/13 07:11:35;;;;;;;2.20;1.98;;;19.30;99.90;;;;;;5036726;28;20198;-87
2022/08/13 07:14:02;;;;;;;2.20;2.00;;;19.40;99.90;;;;;;5054103;28;20180;-87
2022/08/13 07:16:32;;;;;;;3.20;2.10;;;19.60;99.90;;;;;;5037624;28;20255;-87
2022/08/13 07:19:00;;;;;;;2.10;1.90;;;19.70;99.90;;;;;;5037228;28;20237;-87
2022/08/13 07:21:27;;;;;;;2.70;1.98;;;19.90;99.90;;;;;;5037115;28;20205;-87
2022/08/13 07:23:55;;;;;;;2.85;2.10;;;20.00;99.90;;;;;;5037401;28;20213;-87
2022/08/13 07:26:24;;;;;;;2.15;2.00;;;20.20;99.90;;;;;;5037253;28;20181;-87
2022/08/13 07:28:51;;;;;;;1.98;1.88;;;20.40;99.90;;;;;;5037548;28;20193;-88
2022/08/13 07:31:22;;;;;;;2.10;1.92;;;20.60;99.90;;;;;;5036957;28;20198;-87
2022/08/13 07:33:51;;;;;;;2.63;2.08;;;20.80;99.90;;;;;;5037176;28;20170;-87
2022/08/13 07:36:19;;;;;;;2.53;2.33;;;21.00;99.90;;;;;;5033497;28;20253;-87
2022/08/13 07:38:48;;;;;;;2.25;2.05;;;21.20;99.90;;;;;;5033527;28;20197;-86
2022/08/13 07:41:14;;;;;;;2.50;1.88;;;21.40;99.90;;;;;;5033512;28;20244;-86
2022/08/13 07:43:44;;;;;;;2.00;1.90;;;21.60;99.90;;;;;;5042666;28;20178;-86
2022/08/13 07:46:18;;;;;;;4.30;2.00;;;21.80;99.90;;;;;;5036885;28;20197;-86
2022/08/13 07:48:49;;;;;;;2.47;2.13;;;21.80;99.90;;;;;;5037297;28;20197;-85
2022/08/13 07:51:20;;;;;;;2.00;1.90;;;22.00;99.90;;;;;;5037288;28;20201;-86
2022/08/13 07:53:48;;;;;;;2.38;2.00;;;22.00;99.90;;;;;;5037567;28;20239;-86
2022/08/13 07:56:21;;;;;;;4.22;2.00;;;22.20;99.90;;;;;;5027386;28;20178;-86
2022/08/13 07:58:47;;;;;;;4.03;2.35;;;22.30;99.90;;;;;;5032618;28;20188;-86
2022/08/13 08:01:13;;;;;;;4.40;2.15;;;22.50;99.30;;;;;;5023225;28;20198;-86
2022/08/13 08:03:42;;;;;;;2.33;1.92;;;22.60;98.50;;;;;;5053658;28;20174;-87
2022/08/13 08:06:21;;;;;;;2.47;1.80;;;22.80;98.40;;;;;;5037065;28;20177;-86
2022/08/13 08:08:49;;;;;;;2.38;2.08;;;23.00;98.20;;;;;;5041240;28;20177;-86
2022/08/13 08:14:02;;;;;;;4.00;1.90;;;23.30;97.80;;;;;;5053940;28;20174;-86
2022/08/13 08:16:36;;;;;;;2.38;2.17;;;23.40;97.20;;;;;;5033789;28;20174;-86
2022/08/13 08:19:04;;;;;;;5.88;1.95;;;23.60;96.90;;;;;;5035488;28;20289;-87
2022/08/13 08:21:35;;;;;;;2.22;1.88;;;23.70;96.50;;;;;;5034828;28;20255;-88
2022/08/13 08:24:04;;;;;;;1.90;1.80;;;23.90;96.90;;;;;;5035883;28;20186;-87
2022/08/13 08:26:33;;;;;;;2.92;2.15;;;24.00;96.20;;;;;;5036176;28;20194;-87
2022/08/13 08:29:09;;;;;;;2.92;1.90;;;24.20;95.40;;;;;;5052386;28;20198;-88
2022/08/13 08:31:40;;;;;;;3.63;2.30;;;24.30;95.60;;;;;;5052799;28;20202;-88
2022/08/13 08:34:09;;;;;;;3.22;2.10;;;24.50;95.00;;;;;;5052703;28;20154;-87
2022/08/13 08:36:41;;;;;;;2.85;2.00;;;24.60;94.80;;;;;;5036036;28;20194;-88
2022/08/13 08:44:49;;;;;;;2.45;1.85;;;25.00;93.60;;;;;;5052381;28;20171;-88
2022/08/13 08:47:32;;;;;;;4.35;2.10;;;25.10;93.80;;;;;;5052828;28;20190;-88
2022/08/13 08:50:02;;;;;;;2.65;2.05;;;25.40;93.20;;;;;;5037361;28;20224;-87
2022/08/13 08:55:24;;;;;;;2.42;1.88;;;25.60;92.40;;;;;;5053004;28;20256;-87
2022/08/13 08:58:00;;;;;;;5.30;1.90;;;25.60;92.00;;;;;;5048584;28;20181;-87
2022/08/13 09:00:41;;;;;;;2.20;2.00;;;25.70;92.20;;;;;;5041446;28;20220;-88
2022/08/13 09:03:08;;;;;;;3.15;2.25;;;25.70;92.00;;;;;;5036639;28;20194;-89
2022/08/13 09:05:37;;;;;;;2.97;2.00;;;25.80;91.80;;;;;;5036032;28;20182;-86
2022/08/13 09:08:07;;;;;;;2.25;1.85;;;25.80;91.40;;;;;;5037065;28;20182;-88
2022/08/13 09:10:35;;;;;;;1.88;1.77;;;25.80;91.80;;;;;;5035840;28;20173;-88
2022/08/13 09:13:03;;;;;;;1.85;1.73;;;25.90;91.60;;;;;;5026631;28;20214;-87
2022/08/13 09:15:57;;;;;;;3.33;2.22;;;26.00;91.70;;;;;;5044458;28;20178;-89
2022/08/13 09:18:24;;;;;;;3.28;1.80;;;26.00;91.40;;;;;;5035941;28;20197;-89
2022/08/13 09:20:50;;;;;;;5.53;2.28;;;26.10;91.70;;;;;;5024442;28;20233;-89
2022/08/13 09:23:17;;;;;;;2.13;1.92;;;26.20;91.90;;;;;;5032567;28;20194;-90
2022/08/13 09:25:50;;;;;;;4.55;2.10;;;26.20;91.30;;;;;;5032696;28;20277;-89
2022/08/13 09:28:26;;;;;;;7.50;2.58;;;26.20;91.30;;;;;;5039008;28;20177;-87
2022/08/13 09:30:54;;;;;;;2.22;2.03;;;26.10;91.30;;;;;;5034979;28;20169;-87
2022/08/13 09:33:22;;;;;;;7.78;3.30;;;25.70;91.50;;;;;;5033209;28;20235;-88
2022/08/13 09:35:53;;;;;;;4.07;1.83;;;25.60;91.90;;;;;;5033648;28;20197;-88
2022/08/13 09:38:21;;;;;;;7.88;5.32;;;25.70;91.70;;;;;;5034866;28;20228;-88
2022/08/13 09:41:20;;;;;;;2.40;2.20;;;25.90;91.50;;;;;;5034515;28;20198;-88
2022/08/13 09:43:47;;;;;;;1.80;1.70;;;25.90;91.50;;;;;;5048662;28;20193;-88
2022/08/13 09:46:15;;;;;;;1.88;1.77;;;26.10;91.70;;;;;;5035772;28;20166;-88
2022/08/13 09:48:41;;;;;;;3.63;2.10;;;26.10;90.90;;;;;;5042920;28;20262;-88
2022/08/13 09:51:13;;;;;;;3.08;1.90;;;26.20;91.00;;;;;;5034362;28;20192;-88
2022/08/13 09:53:46;;;;;;;2.17;1.75;;;26.20;91.20;;;;;;5005809;28;20194;-88
2022/08/13 09:56:17;;;;;;;3.50;2.20;;;26.20;91.60;;;;;;5031508;28;20190;-88
2022/08/13 09:58:50;;;;;;;4.45;2.28;;;26.40;91.20;;;;;;5021497;28;20190;-88
2022/08/13 10:01:20;;;;;;;2.38;2.13;;;26.40;90.60;;;;;;5031637;28;20202;-88
2022/08/13 10:03:48;;;;;;;2.22;2.03;;;26.70;91.00;;;;;;5025053;28;20182;-88
2022/08/13 10:06:18;;;;;;;2.58;1.90;;;27.10;90.50;;;;;;5034777;28;20188;-88
2022/08/13 10:08:47;;;;;;;2.03;1.75;;;27.50;90.00;;;;;;5035238;28;20173;-88
2022/08/13 10:11:15;;;;;;;2.35;1.88;;;27.60;88.30;;;;;;5051648;28;20178;-88
2022/08/13 10:13:42;;;;;;;2.38;2.17;;;27.80;87.00;;;;;;5035272;28;20246;-88
2022/08/13 10:16:08;;;;;;;2.63;2.17;;;27.80;87.40;;;;;;5035056;28;20190;-88
2022/08/13 10:18:34;;;;;;;2.30;2.00;;;27.80;87.60;;;;;;5035111;28;20177;-88
2022/08/13 10:21:00;;;;;;;1.83;1.73;;;27.80;84.50;;;;;;5034977;28;20220;-88
2022/08/13 10:23:29;;;;;;;2.53;1.92;;;28.00;84.70;;;;;;5031821;28;20183;-88
2022/08/13 10:25:55;;;;;;;2.28;2.08;;;28.10;84.00;;;;;;5047846;28;20233;-88
2022/08/13 10:28:21;;;;;;;2.03;1.80;;;28.30;83.50;;;;;;5028950;28;20198;-88
2022/08/13 10:30:47;;;;;;;1.98;1.88;;;28.20;84.30;;;;;;5020588;28;20272;-88
2022/08/13 10:33:15;;;;;;;2.65;1.98;;;28.50;85.30;;;;;;5017468;28;20281;-88
2022/08/13 10:35:44;;;;;;;3.58;2.00;;;28.20;86.20;;;;;;5025261;28;20185;-88
2022/08/13 10:38:16;;;;;;;2.20;2.00;;;28.20;84.30;;;;;;5034976;28;20220;-88
2022/08/13 10:40:42;;;;;;;2.33;1.63;;;28.40;85.00;;;;;;5061059;28;20201;-88
2022/08/13 10:43:10;;;;;;;2.28;2.10;;;28.30;84.70;;;;;;5053362;28;20282;-88
2022/08/13 10:45:42;;;;;;;2.05;1.92;;;28.20;84.50;;;;;;5052095;28;20184;-88
2022/08/13 10:48:15;;;;;;;2.95;2.17;;;28.00;84.20;;;;;;5049493;28;20177;-88
2022/08/13 10:50:42;;;;;;;3.33;2.25;;;27.80;86.50;;;;;;5030302;28;20196;-88
2022/08/13 10:53:09;;;;;;;3.47;1.80;;;27.70;86.30;;;;;;5027202;28;20210;-88
2022/08/13 10:55:36;;;;;;;2.55;1.80;;;27.90;86.70;;;;;;5047517;28;20189;-88
2022/08/13 10:58:03;;;;;;;2.17;1.98;;;28.10;86.60;;;;;;5034953;28;20177;-88
2022/08/13 11:00:31;;;;;;;2.67;2.10;;;28.50;85.50;;;;;;5048604;28;20245;-88
2022/08/13 11:02:58;;;;;;;3.35;2.00;;;28.60;83.20;;;;;;5042518;28;20194;-88
2022/08/13 11:05:27;;;;;;;2.92;2.08;;;28.60;83.50;;;;;;5042775;28;20654;-88
2022/08/13 11:07:54;;;;;;;2.15;1.95;;;28.80;82.70;;;;;;5028457;28;20250;-88
2022/08/13 11:10:22;;;;;;;6.97;2.08;;;29.00;81.10;;;;;;5052637;28;20186;-89
2022/08/13 11:12:50;;;;;;;2.30;2.10;;;28.80;80.80;;;;;;5035170;28;20202;-89
2022/08/13 11:15:21;;;;;;;2.13;1.90;;;28.90;81.50;;;;;;5031983;28;20240;-89
2022/08/13 11:17:53;;;;;;;3.25;1.98;;;29.00;81.30;;;;;;5023479;28;20243;-89
2022/08/13 11:20:29;;;;;;;2.10;1.95;;;29.10;80.60;;;;;;5034445;28;20244;-88
2022/08/13 11:23:05;;;;;;;2.05;1.92;;;29.30;80.30;;;;;;5034613;28;20289;-87
2022/08/13 11:25:31;;;;;;;2.20;2.00;;;29.40;78.70;;;;;;5033111;28;20277;-87
2022/08/13 11:27:58;;;;;;;1.90;1.70;;;29.30;80.70;;;;;;5016529;28;20190;-88
2022/08/13 11:30:26;;;;;;;3.90;1.98;;;29.70;79.60;;;;;;5036925;28;20197;-93
2022/08/13 11:32:52;;;;;;;4.35;1.98;;;30.00;78.40;;;;;;5054538;28;20210;-84
2022/08/13 11:35:18;;;;;;;2.08;1.90;;;30.20;77.70;;;;;;5037520;28;20235;-88
2022/08/13 11:37:44;;;;;;;2.45;2.05;;;30.50;77.10;;;;;;5035845;28;20190;-88
2022/08/13 11:40:15;;;;;;;2.85;2.08;;;30.60;75.50;;;;;;5032302;28;20216;-87
2022/08/13 11:42:41;;;;;;;2.10;2.00;;;30.60;75.40;;;;;;5037570;28;20205;-86
2022/08/13 11:45:07;;;;;;;2.17;1.95;;;30.70;74.60;;;;;;5037327;28;20182;-85
2022/08/13 11:47:39;;;;;;;2.03;1.75;;;30.80;74.50;;;;;;5037534;28;20178;-84
2022/08/13 11:50:05;;;;;;;3.88;2.15;;;31.10;74.40;;;;;;5037079;28;20219;-81
2022/08/13 11:52:31;;;;;;;3.05;2.00;;;31.30;75.00;;;;;;5037217;28;20197;-89
2022/08/13 11:54:57;;;;;;;2.47;1.85;;;31.10;73.40;;;;;;5038194;28;20272;-90
2022/08/13 11:57:28;;;;;;;2.85;2.10;;;31.20;74.10;;;;;;5033386;28;20273;-90
2022/08/13 11:59:54;;;;;;;2.55;2.10;;;31.30;73.50;;;;;;5026794;28;20221;-88
2022/08/13 12:02:21;;;;;;;2.33;1.85;;;31.50;72.00;;;;;;5036829;28;20197;-88
2022/08/13 12:04:47;;;;;;;2.05;1.75;;;31.30;71.60;;;;;;5038067;28;20196;-89
2022/08/13 12:07:13;;;;;;;2.95;1.80;;;30.80;73.10;;;;;;5037337;28;20174;-86
2022/08/13 12:09:39;;;;;;;2.00;1.90;;;30.60;72.30;;;;;;5036930;28;20193;-83
2022/08/13 12:12:05;;;;;;;3.47;2.10;;;30.90;71.90;;;;;;5045659;28;20224;-84
2022/08/13 12:14:31;;;;;;;1.83;1.70;;;31.10;71.10;;;;;;5037442;28;20244;-83
2022/08/13 12:16:57;;;;;;;1.95;1.85;;;31.30;69.40;;;;;;5034997;28;20175;-80
2022/08/13 12:19:23;;;;;;;2.15;1.73;;;31.40;70.10;;;;;;5053545;28;20210;-79
2022/08/13 12:21:49;;;;;;;3.40;1.88;;;31.30;70.60;;;;;;5054011;28;20203;-81
2022/08/13 12:24:15;;;;;;;4.93;2.03;;;31.50;70.50;;;;;;5022512;28;20214;-81
2022/08/13 12:26:40;;;;;;;3.42;1.75;;;31.60;70.80;;;;;;5031511;28;20181;-81
2022/08/13 12:29:07;;;;;;;2.47;1.80;;;31.60;69.80;;;;;;5041282;28;20178;-82
2022/08/13 12:31:33;;;;;;;2.20;2.00;;;31.40;68.90;;;;;;5057841;28;20229;-82
2022/08/13 12:33:59;;;;;;;1.88;1.77;;;31.50;69.50;;;;;;5036659;28;20170;-79
2022/08/13 12:36:26;;;;;;;3.38;1.80;;;31.50;68.30;;;;;;5037343;28;20190;-79
2022/08/13 12:38:52;;;;;;;2.03;1.73;;;31.30;68.70;;;;;;5050193;28;20174;-78
2022/08/13 12:41:18;;;;;;;2.97;1.75;;;31.50;69.10;;;;;;5035927;28;20201;-79
2022/08/13 12:43:46;;;;;;;1.80;1.70;;;31.60;67.90;;;;;;5036357;28;20255;-78
2022/08/13 12:46:12;;;;;;;2.05;1.85;;;31.80;67.40;;;;;;5036656;28;20174;-78
2022/08/13 12:48:38;;;;;;;1.70;1.60;;;32.10;67.10;;;;;;5036865;28;20177;-78
2022/08/13 12:51:04;;;;;;;2.38;1.63;;;32.20;65.70;;;;;;5035232;28;20194;-77
2022/08/13 12:53:33;;;;;;;2.15;1.80;;;32.30;65.20;;;;;;5035800;28;20228;-79
2022/08/13 12:55:59;;;;;;;2.80;1.58;;;32.40;64.10;;;;;;5035822;28;20193;-78
2022/08/13 12:58:27;;;;;;;1.73;1.55;;;32.50;64.20;;;;;;5035999;28;20178;-78
2022/08/13 13:00:57;;;;;;;2.55;1.70;;;32.30;65.80;;;;;;5034885;28;20256;-86
2022/08/13 13:03:26;;;;;;;1.75;1.65;;;32.40;64.20;;;;;;5037633;28;20232;-83
2022/08/13 13:05:53;;;;;;;1.77;1.50;;;32.20;65.50;;;;;;5035640;28;20265;-87
2022/08/13 13:08:33;;;;;;;3.05;1.80;;;32.40;65.10;;;;;;5034339;28;20185;-78
2022/08/13 13:11:03;;;;;;;1.50;1.40;;;32.60;64.10;;;;;;5045737;28;20261;-79
2022/08/13 13:13:30;;;;;;;3.42;1.70;;;32.80;64.20;;;;;;5035799;28;20174;-78
2022/08/13 13:15:57;;;;;;;2.15;1.80;;;33.00;64.10;;;;;;5035122;28;20178;-78
2022/08/13 13:18:36;;;;;;;1.50;1.40;;;33.20;62.20;;;;;;5034958;28;20623;-84
2022/08/13 13:21:02;;;;;;;1.70;1.60;;;33.30;61.70;;;;;;5034681;28;20193;-84
2022/08/13 13:23:29;;;;;;;2.45;1.67;;;33.10;61.00;;;;;;5035216;28;20235;-89
2022/08/13 13:25:57;;;;;;;1.80;1.70;;;33.30;62.10;;;;;;5035736;28;20216;-89
2022/08/13 13:28:27;;;;;;;2.20;1.70;;;33.30;62.40;;;;;;5035701;28;20185;-90
2022/08/13 13:30:53;;;;;;;1.70;1.60;;;33.40;61.90;;;;;;5035203;28;20174;-87